sensor_id;sensor_type;location;lat;lon;timestamp;temperature;humidity
56046;DHT22;41913;51.030;3.706;2022-08-27T00:00:49;17.50;99.90
56046;DHT22;41913;51.030;3.706;2022-08-27T00:03:18;17.40;99.90
56046;DHT22;41913;51.030;3.706;2022-08-27T00:05:47;17.30;99.90
56046;DHT22;41913;51.030;3.706;2022-08-27T00:08:22;17.20;99.90
56046;DHT22;41913;51.030;3.706;2022-08-27T00:10:48;17.30;99.90
56046;DHT22;41913;51.030;3.706;2022-08-27T00:13:13;17.20;99.90
56046;DHT22;41913;51.030;3.706;2022-08-27T00:15:41;17.30;99.90
56046;DHT22;41913;51.030;3.706;2022-08-27T00:18:19;17.20;99.90
56046;DHT22;41913;51.030;3.706;2022-08-27T00:20:49;17.10;99.90
56046;DHT22;41913;51.030;3.706;2022-08-27T00:23:15;17.10;99.90
56046;DHT22;41913;51.030;3.706;2022-08-27T00:25:41;17.00;99.90
56046;DHT22;41913;51.030;3.706;2022-08-27T00:28:08;17.00;99.90
56046;DHT22;41913;51.030;3.706;2022-08-27T00:30:35;17.00;99.90
56046;DHT22;41913;51.030;3.706;2022-08-27T00:33:03;17.00;99.90
56046;DHT22;41913;51.030;3.706;2022-08-27T00:35:32;17.00;99.90
56046;DHT22;41913;51.030;3.706;2022-08-27T00:38:05;16.90;99.90
56046;DHT22;41913;51.030;3.706;2022-08-27T00:40:32;16.90;99.90
56046;DHT22;41913;51.030;3.706;2022-08-27T00:43:00;16.90;99.90
56046;DHT22;41913;51.030;3.706;2022-08-27T00:45:42;16.90;99.90
56046;DHT22;41913;51.030;3.706;2022-08-27T00:48:12;16.90;99.90
56046;DHT22;41913;51.030;3.706;2022-08-27T00:50:45;16.90;99.90
56046;DHT22;41913;51.030;3.706;2022-08-27T00:53:25;16.90;99.90
56046;DHT22;41913;51.030;3.706;2022-08-27T00:56:17;16.90;99.90
56046;DHT22;41913;51.030;3.706;2022-08-27T00:58:50;17.00;99.90
56046;DHT22;41913;51.030;3.706;2022-08-27T01:01:28;17.20;99.90
56046;DHT22;41913;51.030;3.706;2022-08-27T01:04:00;17.30;99.90
56046;DHT22;41913;51.030;3.706;2022-08-27T01:06:29;17.20;99.90
56046;DHT22;41913;51.030;3.706;2022-08-27T01:09:04;17.00;99.90
56046;DHT22;41913;51.030;3.706;2022-08-27T01:11:32;17.00;99.90
56046;DHT22;41913;51.030;3.706;2022-08-27T01:13:59;16.90;99.90
56046;DHT22;41913;51.030;3.706;2022-08-27T01:16:45;16.90;99.90
56046;DHT22;41913;51.030;3.706;2022-08-27T01:24:59;17.20;99.90
56046;DHT22;41913;51.030;3.706;2022-08-27T01:27:28;16.80;99.90
56046;DHT22;41913;51.030;3.706;2022-08-27T01:29:56;16.60;99.90
56046;DHT22;41913;51.030;3.706;2022-08-27T01:32:31;16.50;99.90
56046;DHT22;41913;51.030;3.706;2022-08-27T01:34:58;16.60;99.90
56046;DHT22;41913;51.030;3.706;2022-08-27T01:37:26;16.40;99.90
56046;DHT22;41913;51.030;3.706;2022-08-27T01:39:53;16.40;99.90
56046;DHT22;41913;51.030;3.706;2022-08-27T01:42:34;16.40;99.90
56046;DHT22;41913;51.030;3.706;2022-08-27T01:45:07;16.30;99.90
56046;DHT22;41913;51.030;3.706;2022-08-27T01:47:35;16.50;99.90
56046;DHT22;41913;51.030;3.706;2022-08-27T01:50:13;16.40;99.90
56046;DHT22;41913;51.030;3.706;2022-08-27T01:52:42;16.40;99.90
56046;DHT22;41913;51.030;3.706;2022-08-27T01:55:12;16.70;99.90
56046;DHT22;41913;51.030;3.706;2022-08-27T01:57:39;17.10;99.90
56046;DHT22;41913;51.030;3.706;2022-08-27T02:00:12;17.20;99.90
56046;DHT22;41913;51.030;3.706;2022-08-27T02:02:41;17.20;99.90
56046;DHT22;41913;51.030;3.706;2022-08-27T02:05:31;17.20;99.90
56046;DHT22;41913;51.030;3.706;2022-08-27T02:07:58;17.20;99.90
56046;DHT22;41913;51.030;3.706;2022-08-27T02:10:33;17.20;99.90
56046;DHT22;41913;51.030;3.706;2022-08-27T02:13:03;17.20;99.90
56046;DHT22;41913;51.030;3.706;2022-08-27T02:15:37;17.10;99.90
56046;DHT22;41913;51.030;3.706;2022-08-27T02:18:06;17.20;99.90
56046;DHT22;41913;51.030;3.706;2022-08-27T02:20:33;17.20;99.90
56046;DHT22;41913;51.030;3.706;2022-08-27T02:23:05;17.10;99.90
56046;DHT22;41913;51.030;3.706;2022-08-27T02:25:33;17.10;99.90
56046;DHT22;41913;51.030;3.706;2022-08-27T02:28:01;16.80;99.90
56046;DHT22;41913;51.030;3.706;2022-08-27T02:30:34;16.50;99.90
56046;DHT22;41913;51.030;3.706;2022-08-27T02:33:02;16.60;99.90
56046;DHT22;41913;51.030;3.706;2022-08-27T02:35:35;16.60;99.90
56046;DHT22;41913;51.030;3.706;2022-08-27T02:38:07;16.80;99.90
56046;DHT22;41913;51.030;3.706;2022-08-27T02:40:34;16.80;99.90
56046;DHT22;41913;51.030;3.706;2022-08-27T02:43:10;16.70;99.90
56046;DHT22;41913;51.030;3.706;2022-08-27T02:45:47;16.70;99.90
56046;DHT22;41913;51.030;3.706;2022-08-27T02:48:17;16.70;99.90
56046;DHT22;41913;51.030;3.706;2022-08-27T02:50:46;16.70;99.90
56046;DHT22;41913;51.030;3.706;2022-08-27T02:53:12;16.70;99.90
56046;DHT22;41913;51.030;3.706;2022-08-27T02:55:38;16.60;99.90
56046;DHT22;41913;51.030;3.706;2022-08-27T02:58:07;16.60;99.90
56046;DHT22;41913;51.030;3.706;2022-08-27T03:00:37;16.60;99.90
56046;DHT22;41913;51.030;3.706;2022-08-27T03:03:06;16.60;99.90
56046;DHT22;41913;51.030;3.706;2022-08-27T03:05:33;16.60;99.90
56046;DHT22;41913;51.030;3.706;2022-08-27T03:08:12;16.50;99.90
56046;DHT22;41913;51.030;3.706;2022-08-27T03:10:38;16.40;99.90
56046;DHT22;41913;51.030;3.706;2022-08-27T03:13:11;16.40;99.90
56046;DHT22;41913;51.030;3.706;2022-08-27T03:18:09;16.40;99.90
56046;DHT22;41913;51.030;3.706;2022-08-27T03:20:53;16.40;99.90
56046;DHT22;41913;51.030;3.706;2022-08-27T03:23:23;16.40;99.90
56046;DHT22;41913;51.030;3.706;2022-08-27T03:25:56;16.40;99.90
56046;DHT22;41913;51.030;3.706;2022-08-27T03:28:27;16.40;99.90
56046;DHT22;41913;51.030;3.706;2022-08-27T03:30:55;16.40;99.90
56046;DHT22;41913;51.030;3.706;2022-08-27T03:33:27;16.40;99.90
56046;DHT22;41913;51.030;3.706;2022-08-27T03:35:52;16.40;99.90
56046;DHT22;41913;51.030;3.706;2022-08-27T03:38:21;16.30;99.90
56046;DHT22;41913;51.030;3.706;2022-08-27T03:40:48;16.30;99.90
56046;DHT22;41913;51.030;3.706;2022-08-27T03:43:18;16.30;99.90
56046;DHT22;41913;51.030;3.706;2022-08-27T03:45:46;16.40;99.90
56046;DHT22;41913;51.030;3.706;2022-08-27T03:48:13;16.30;99.90
56046;DHT22;41913;51.030;3.706;2022-08-27T03:50:42;16.30;99.90
56046;DHT22;41913;51.030;3.706;2022-08-27T03:53:11;16.20;99.90
56046;DHT22;41913;51.030;3.706;2022-08-27T03:55:37;16.10;99.90
56046;DHT22;41913;51.030;3.706;2022-08-27T03:58:03;16.10;99.90
56046;DHT22;41913;51.030;3.706;2022-08-27T04:00:29;16.10;99.90
56046;DHT22;41913;51.030;3.706;2022-08-27T04:02:55;16.10;99.90
56046;DHT22;41913;51.030;3.706;2022-08-27T04:05:21;16.10;99.90
56046;DHT22;41913;51.030;3.706;2022-08-27T04:07:48;16.00;99.90
56046;DHT22;41913;51.030;3.706;2022-08-27T04:10:17;16.00;99.90
56046;DHT22;41913;51.030;3.706;2022-08-27T04:12:46;16.00;99.90
56046;DHT22;41913;51.030;3.706;2022-08-27T04:15:15;16.10;99.90
56046;DHT22;41913;51.030;3.706;2022-08-27T04:17:41;16.10;99.90
56046;DHT22;41913;51.030;3.706;2022-08-27T04:20:08;16.10;99.90
56046;DHT22;41913;51.030;3.706;2022-08-27T04:22:44;16.00;99.90
56046;DHT22;41913;51.030;3.706;2022-08-27T04:25:12;16.10;99.90
56046;DHT22;41913;51.030;3.706;2022-08-27T04:27:39;16.00;99.90
56046;DHT22;41913;51.030;3.706;2022-08-27T04:30:05;15.80;99.90
56046;DHT22;41913;51.030;3.706;2022-08-27T04:32:38;15.80;99.90
56046;DHT22;41913;51.030;3.706;2022-08-27T04:35:05;15.80;99.90
56046;DHT22;41913;51.030;3.706;2022-08-27T04:37:31;15.90;99.90
56046;DHT22;41913;51.030;3.706;2022-08-27T04:40:00;15.90;99.90
56046;DHT22;41913;51.030;3.706;2022-08-27T04:42:29;15.90;99.90
56046;DHT22;41913;51.030;3.706;2022-08-27T04:44:58;15.90;99.90
56046;DHT22;41913;51.030;3.706;2022-08-27T04:47:24;16.00;99.90
56046;DHT22;41913;51.030;3.706;2022-08-27T04:49:50;15.80;99.90
56046;DHT22;41913;51.030;3.706;2022-08-27T04:52:18;15.80;99.90
56046;DHT22;41913;51.030;3.706;2022-08-27T04:54:46;15.80;99.90
56046;DHT22;41913;51.030;3.706;2022-08-27T04:57:14;15.90;99.90
56046;DHT22;41913;51.030;3.706;2022-08-27T04:59:42;15.80;99.90
56046;DHT22;41913;51.030;3.706;2022-08-27T05:02:08;15.80;99.90
56046;DHT22;41913;51.030;3.706;2022-08-27T05:04:35;15.80;99.90
56046;DHT22;41913;51.030;3.706;2022-08-27T05:07:03;15.80;99.90
56046;DHT22;41913;51.030;3.706;2022-08-27T05:09:34;15.80;99.90
56046;DHT22;41913;51.030;3.706;2022-08-27T05:12:02;15.80;99.90
56046;DHT22;41913;51.030;3.706;2022-08-27T05:14:31;15.90;99.90
56046;DHT22;41913;51.030;3.706;2022-08-27T05:16:58;16.00;99.90
56046;DHT22;41913;51.030;3.706;2022-08-27T05:19:25;15.90;99.90
56046;DHT22;41913;51.030;3.706;2022-08-27T05:21:51;15.80;99.90
56046;DHT22;41913;51.030;3.706;2022-08-27T05:24:20;15.80;99.90
56046;DHT22;41913;51.030;3.706;2022-08-27T05:26:46;15.70;99.90
56046;DHT22;41913;51.030;3.706;2022-08-27T05:29:12;15.80;99.90
56046;DHT22;41913;51.030;3.706;2022-08-27T05:31:41;15.90;99.90
56046;DHT22;41913;51.030;3.706;2022-08-27T05:34:07;16.00;99.90
56046;DHT22;41913;51.030;3.706;2022-08-27T05:36:34;16.00;99.90
56046;DHT22;41913;51.030;3.706;2022-08-27T05:39:03;16.00;99.90
56046;DHT22;41913;51.030;3.706;2022-08-27T05:41:33;16.10;99.90
56046;DHT22;41913;51.030;3.706;2022-08-27T05:44:05;16.20;99.90
56046;DHT22;41913;51.030;3.706;2022-08-27T05:46:37;16.30;99.90
56046;DHT22;41913;51.030;3.706;2022-08-27T05:49:04;16.30;99.90
56046;DHT22;41913;51.030;3.706;2022-08-27T05:51:35;16.30;99.90
56046;DHT22;41913;51.030;3.706;2022-08-27T05:54:10;16.30;99.90
56046;DHT22;41913;51.030;3.706;2022-08-27T05:56:56;16.50;99.90
56046;DHT22;41913;51.030;3.706;2022-08-27T05:59:22;16.50;99.90
56046;DHT22;41913;51.030;3.706;2022-08-27T06:02:08;16.60;99.90
56046;DHT22;41913;51.030;3.706;2022-08-27T06:04:36;16.50;99.90
56046;DHT22;41913;51.030;3.706;2022-08-27T06:07:03;16.60;99.90
56046;DHT22;41913;51.030;3.706;2022-08-27T06:09:32;16.60;99.90
56046;DHT22;41913;51.030;3.706;2022-08-27T06:12:04;16.70;99.90
56046;DHT22;41913;51.030;3.706;2022-08-27T06:14:33;16.80;99.90
56046;DHT22;41913;51.030;3.706;2022-08-27T06:17:00;16.90;99.90
56046;DHT22;41913;51.030;3.706;2022-08-27T06:19:28;17.00;99.90
56046;DHT22;41913;51.030;3.706;2022-08-27T06:21:56;17.10;99.90
56046;DHT22;41913;51.030;3.706;2022-08-27T06:24:26;17.30;99.90
56046;DHT22;41913;51.030;3.706;2022-08-27T06:26:51;17.30;99.90
56046;DHT22;41913;51.030;3.706;2022-08-27T06:29:18;17.50;99.90
56046;DHT22;41913;51.030;3.706;2022-08-27T06:31:44;17.50;99.90
56046;DHT22;41913;51.030;3.706;2022-08-27T06:34:14;17.60;99.90
56046;DHT22;41913;51.030;3.706;2022-08-27T06:36:42;17.60;99.90
56046;DHT22;41913;51.030;3.706;2022-08-27T06:39:10;17.70;99.90
56046;DHT22;41913;51.030;3.706;2022-08-27T06:41:43;17.80;99.90
56046;DHT22;41913;51.030;3.706;2022-08-27T06:44:12;17.90;99.90
56046;DHT22;41913;51.030;3.706;2022-08-27T06:46:41;18.00;99.90
56046;DHT22;41913;51.030;3.706;2022-08-27T06:49:12;18.10;99.90
56046;DHT22;41913;51.030;3.706;2022-08-27T06:51:39;18.20;99.90
56046;DHT22;41913;51.030;3.706;2022-08-27T06:54:09;18.10;99.90
56046;DHT22;41913;51.030;3.706;2022-08-27T06:56:36;18.00;99.90
56046;DHT22;41913;51.030;3.706;2022-08-27T06:59:07;18.00;99.90
56046;DHT22;41913;51.030;3.706;2022-08-27T07:01:42;18.20;99.90
56046;DHT22;41913;51.030;3.706;2022-08-27T07:04:15;18.40;99.90
56046;DHT22;41913;51.030;3.706;2022-08-27T07:06:48;18.60;99.90
56046;DHT22;41913;51.030;3.706;2022-08-27T07:09:17;18.90;99.90
56046;DHT22;41913;51.030;3.706;2022-08-27T07:11:45;19.10;99.90
56046;DHT22;41913;51.030;3.706;2022-08-27T07:14:12;19.30;99.90
56046;DHT22;41913;51.030;3.706;2022-08-27T07:16:38;19.50;99.90
56046;DHT22;41913;51.030;3.706;2022-08-27T07:19:08;20.30;99.90
56046;DHT22;41913;51.030;3.706;2022-08-27T07:21:34;21.50;99.90
56046;DHT22;41913;51.030;3.706;2022-08-27T07:24:03;22.50;99.90
56046;DHT22;41913;51.030;3.706;2022-08-27T07:26:38;24.00;98.90
56046;DHT22;41913;51.030;3.706;2022-08-27T07:29:12;25.20;96.50
56046;DHT22;41913;51.030;3.706;2022-08-27T07:31:41;26.40;94.60
56046;DHT22;41913;51.030;3.706;2022-08-27T07:34:08;27.30;93.60
56046;DHT22;41913;51.030;3.706;2022-08-27T07:36:40;28.50;91.70
56046;DHT22;41913;51.030;3.706;2022-08-27T07:39:06;29.40;90.00
56046;DHT22;41913;51.030;3.706;2022-08-27T07:41:33;29.90;87.10
56046;DHT22;41913;51.030;3.706;2022-08-27T07:44:33;30.10;85.50
56046;DHT22;41913;51.030;3.706;2022-08-27T07:47:00;30.70;83.90
56046;DHT22;41913;51.030;3.706;2022-08-27T07:49:28;31.10;82.10
56046;DHT22;41913;51.030;3.706;2022-08-27T07:51:54;30.30;80.70
56046;DHT22;41913;51.030;3.706;2022-08-27T07:54:21;29.10;81.70
56046;DHT22;41913;51.030;3.706;2022-08-27T07:56:49;27.50;84.70
56046;DHT22;41913;51.030;3.706;2022-08-27T07:59:15;28.00;85.50
56046;DHT22;41913;51.030;3.706;2022-08-27T08:01:41;29.10;83.20
56046;DHT22;41913;51.030;3.706;2022-08-27T08:04:09;29.50;80.70
56046;DHT22;41913;51.030;3.706;2022-08-27T08:06:38;30.20;79.70
56046;DHT22;41913;51.030;3.706;2022-08-27T08:09:05;31.60;77.70
56046;DHT22;41913;51.030;3.706;2022-08-27T08:11:31;32.30;75.50
56046;DHT22;41913;51.030;3.706;2022-08-27T08:13:58;33.30;74.20
56046;DHT22;41913;51.030;3.706;2022-08-27T08:16:24;34.30;71.50
56046;DHT22;41913;51.030;3.706;2022-08-27T08:18:50;33.90;70.60
56046;DHT22;41913;51.030;3.706;2022-08-27T08:21:17;35.40;69.40
56046;DHT22;41913;51.030;3.706;2022-08-27T08:23:43;35.70;67.50
56046;DHT22;41913;51.030;3.706;2022-08-27T08:26:10;35.40;66.80
56046;DHT22;41913;51.030;3.706;2022-08-27T08:28:38;34.40;66.60
56046;DHT22;41913;51.030;3.706;2022-08-27T08:31:04;31.50;69.60
56046;DHT22;41913;51.030;3.706;2022-08-27T08:33:30;32.10;70.60
56046;DHT22;41913;51.030;3.706;2022-08-27T08:36:13;32.50;68.80
56046;DHT22;41913;51.030;3.706;2022-08-27T08:38:43;29.90;70.70
56046;DHT22;41913;51.030;3.706;2022-08-27T08:41:51;27.80;74.30
56046;DHT22;41913;51.030;3.706;2022-08-27T08:44:26;26.00;77.50
56046;DHT22;41913;51.030;3.706;2022-08-27T08:55:08;23.40;85.60
56046;DHT22;41913;51.030;3.706;2022-08-27T08:57:49;23.70;85.70
56046;DHT22;41913;51.030;3.706;2022-08-27T09:00:17;25.00;83.10
56046;DHT22;41913;51.030;3.706;2022-08-27T09:02:53;26.10;81.10
56046;DHT22;41913;51.030;3.706;2022-08-27T09:05:20;26.30;79.70
56046;DHT22;41913;51.030;3.706;2022-08-27T09:10:41;25.10;82.20
56046;DHT22;41913;51.030;3.706;2022-08-27T09:13:18;24.90;81.90
56046;DHT22;41913;51.030;3.706;2022-08-27T09:15:45;24.50;83.20
56046;DHT22;41913;51.030;3.706;2022-08-27T09:18:14;23.90;84.90
56046;DHT22;41913;51.030;3.706;2022-08-27T09:20:45;23.50;86.50
56046;DHT22;41913;51.030;3.706;2022-08-27T09:23:21;23.00;87.40
56046;DHT22;41913;51.030;3.706;2022-08-27T09:25:48;23.00;87.60
56046;DHT22;41913;51.030;3.706;2022-08-27T09:28:22;23.10;87.80
56046;DHT22;41913;51.030;3.706;2022-08-27T09:31:18;23.20;87.80
56046;DHT22;41913;51.030;3.706;2022-08-27T09:33:46;22.90;88.60
56046;DHT22;41913;51.030;3.706;2022-08-27T09:36:16;22.80;89.50
56046;DHT22;41913;51.030;3.706;2022-08-27T09:38:53;22.90;89.50
56046;DHT22;41913;51.030;3.706;2022-08-27T09:41:25;23.00;89.90
56046;DHT22;41913;51.030;3.706;2022-08-27T09:44:06;23.30;89.40
56046;DHT22;41913;51.030;3.706;2022-08-27T09:46:32;23.60;89.00
56046;DHT22;41913;51.030;3.706;2022-08-27T09:49:12;23.50;89.00
56046;DHT22;41913;51.030;3.706;2022-08-27T09:51:45;23.60;88.80
56046;DHT22;41913;51.030;3.706;2022-08-27T09:54:27;23.80;88.30
56046;DHT22;41913;51.030;3.706;2022-08-27T09:56:54;23.70;88.00
56046;DHT22;41913;51.030;3.706;2022-08-27T09:59:39;23.70;87.60
56046;DHT22;41913;51.030;3.706;2022-08-27T10:02:17;23.60;87.50
56046;DHT22;41913;51.030;3.706;2022-08-27T10:05:00;23.90;86.80
56046;DHT22;41913;51.030;3.706;2022-08-27T10:07:47;24.30;86.00
56046;DHT22;41913;51.030;3.706;2022-08-27T10:13:16;25.60;82.50
56046;DHT22;41913;51.030;3.706;2022-08-27T10:21:29;26.70;78.80
56046;DHT22;41913;51.030;3.706;2022-08-27T10:24:26;27.10;79.20
56046;DHT22;41913;51.030;3.706;2022-08-27T10:29:51;29.70;72.70
56046;DHT22;41913;51.030;3.706;2022-08-27T10:35:14;30.60;70.90
56046;DHT22;41913;51.030;3.706;2022-08-27T10:40:47;31.90;68.70
56046;DHT22;41913;51.030;3.706;2022-08-27T10:46:35;30.90;68.80
56046;DHT22;41913;51.030;3.706;2022-08-27T10:51:55;29.70;71.10
56046;DHT22;41913;51.030;3.706;2022-08-27T10:54:31;30.00;70.70
56046;DHT22;41913;51.030;3.706;2022-08-27T10:59:58;28.30;73.10
56046;DHT22;41913;51.030;3.706;2022-08-27T11:02:38;28.60;72.80
56046;DHT22;41913;51.030;3.706;2022-08-27T11:05:14;28.70;73.00
56046;DHT22;41913;51.030;3.706;2022-08-27T11:07:45;29.20;71.70
56046;DHT22;41913;51.030;3.706;2022-08-27T11:10:32;29.20;72.00
56046;DHT22;41913;51.030;3.706;2022-08-27T11:13:04;27.90;72.10
56046;DHT22;41913;51.030;3.706;2022-08-27T11:15:32;27.40;72.80
56046;DHT22;41913;51.030;3.706;2022-08-27T11:20:42;26.50;74.80
56046;DHT22;41913;51.030;3.706;2022-08-27T11:25:59;26.20;76.80
56046;DHT22;41913;51.030;3.706;2022-08-27T11:28:40;26.60;75.60
56046;DHT22;41913;51.030;3.706;2022-08-27T11:34:09;26.30;76.90
56046;DHT22;41913;51.030;3.706;2022-08-27T11:39:53;26.30;75.60
56046;DHT22;41913;51.030;3.706;2022-08-27T11:42:42;26.40;74.50
56046;DHT22;41913;51.030;3.706;2022-08-27T11:45:33;26.60;74.00
56046;DHT22;41913;51.030;3.706;2022-08-27T11:51:01;25.10;76.50
56046;DHT22;41913;51.030;3.706;2022-08-27T11:53:55;25.00;77.60
56046;DHT22;41913;51.030;3.706;2022-08-27T11:58:55;24.90;80.50
56046;DHT22;41913;51.030;3.706;2022-08-27T12:01:29;24.60;81.90
56046;DHT22;41913;51.030;3.706;2022-08-27T12:04:06;24.70;81.40
56046;DHT22;41913;51.030;3.706;2022-08-27T12:06:44;24.80;81.30
56046;DHT22;41913;51.030;3.706;2022-08-27T12:09:18;24.70;81.20
56046;DHT22;41913;51.030;3.706;2022-08-27T12:14:42;24.50;81.60
56046;DHT22;41913;51.030;3.706;2022-08-27T12:17:23;24.20;82.90
56046;DHT22;41913;51.030;3.706;2022-08-27T12:22:48;25.00;82.10
56046;DHT22;41913;51.030;3.706;2022-08-27T12:25:38;25.10;81.30
56046;DHT22;41913;51.030;3.706;2022-08-27T12:28:06;25.30;80.50
56046;DHT22;41913;51.030;3.706;2022-08-27T12:33:12;24.80;81.70
56046;DHT22;41913;51.030;3.706;2022-08-27T12:35:50;25.10;80.80
56046;DHT22;41913;51.030;3.706;2022-08-27T12:38:25;25.10;80.50
56046;DHT22;41913;51.030;3.706;2022-08-27T12:41:00;24.80;79.90
56046;DHT22;41913;51.030;3.706;2022-08-27T12:43:35;25.10;79.70
56046;DHT22;41913;51.030;3.706;2022-08-27T12:46:16;25.10;80.00
56046;DHT22;41913;51.030;3.706;2022-08-27T12:48:49;25.00;79.80
56046;DHT22;41913;51.030;3.706;2022-08-27T12:51:34;25.40;79.60
56046;DHT22;41913;51.030;3.706;2022-08-27T12:54:34;25.40;78.60
56046;DHT22;41913;51.030;3.706;2022-08-27T12:57:21;25.10;79.20
56046;DHT22;41913;51.030;3.706;2022-08-27T13:00:18;24.70;80.00
56046;DHT22;41913;51.030;3.706;2022-08-27T13:05:21;24.90;79.90
56046;DHT22;41913;51.030;3.706;2022-08-27T13:07:49;24.80;79.00
56046;DHT22;41913;51.030;3.706;2022-08-27T13:10:18;24.50;79.70
56046;DHT22;41913;51.030;3.706;2022-08-27T13:12:47;24.70;79.50
56046;DHT22;41913;51.030;3.706;2022-08-27T13:15:16;24.80;79.00
56046;DHT22;41913;51.030;3.706;2022-08-27T13:17:45;24.80;78.90
56046;DHT22;41913;51.030;3.706;2022-08-27T13:20:15;24.70;78.50
56046;DHT22;41913;51.030;3.706;2022-08-27T13:22:50;24.80;78.50
56046;DHT22;41913;51.030;3.706;2022-08-27T13:25:28;25.30;77.10
56046;DHT22;41913;51.030;3.706;2022-08-27T13:27:58;25.90;76.40
56046;DHT22;41913;51.030;3.706;2022-08-27T13:30:30;26.10;75.70
56046;DHT22;41913;51.030;3.706;2022-08-27T13:32:56;25.60;75.70
56046;DHT22;41913;51.030;3.706;2022-08-27T13:35:23;25.80;75.60
56046;DHT22;41913;51.030;3.706;2022-08-27T13:37:55;25.80;76.10
56046;DHT22;41913;51.030;3.706;2022-08-27T13:40:27;26.20;75.00
56046;DHT22;41913;51.030;3.706;2022-08-27T13:43:08;26.40;74.60
56046;DHT22;41913;51.030;3.706;2022-08-27T13:45:41;26.90;74.00
56046;DHT22;41913;51.030;3.706;2022-08-27T13:48:11;27.40;73.50
56046;DHT22;41913;51.030;3.706;2022-08-27T13:50:49;26.10;75.00
56046;DHT22;41913;51.030;3.706;2022-08-27T13:53:25;25.50;76.10
56046;DHT22;41913;51.030;3.706;2022-08-27T13:56:10;24.80;78.00
56046;DHT22;41913;51.030;3.706;2022-08-27T13:58:46;24.70;78.10
56046;DHT22;41913;51.030;3.706;2022-08-27T14:01:24;24.60;78.60
56046;DHT22;41913;51.030;3.706;2022-08-27T14:03:58;24.70;78.70
56046;DHT22;41913;51.030;3.706;2022-08-27T14:06:32;24.50;79.00
56046;DHT22;41913;51.030;3.706;2022-08-27T14:09:14;24.70;78.70
56046;DHT22;41913;51.030;3.706;2022-08-27T14:11:41;25.00;78.30
56046;DHT22;41913;51.030;3.706;2022-08-27T14:14:09;25.10;77.80
56046;DHT22;41913;51.030;3.706;2022-08-27T14:16:38;25.10;77.50
56046;DHT22;41913;51.030;3.706;2022-08-27T14:21:32;25.70;76.00
56046;DHT22;41913;51.030;3.706;2022-08-27T14:24:02;25.50;76.50
56046;DHT22;41913;51.030;3.706;2022-08-27T14:26:28;25.10;77.50
56046;DHT22;41913;51.030;3.706;2022-08-27T14:28:55;24.90;78.00
56046;DHT22;41913;51.030;3.706;2022-08-27T14:31:22;25.20;77.10
56046;DHT22;41913;51.030;3.706;2022-08-27T14:33:49;24.90;77.20
56046;DHT22;41913;51.030;3.706;2022-08-27T14:36:17;24.70;77.80
56046;DHT22;41913;51.030;3.706;2022-08-27T14:38:47;24.80;77.10
56046;DHT22;41913;51.030;3.706;2022-08-27T14:41:13;24.50;77.30
56046;DHT22;41913;51.030;3.706;2022-08-27T14:43:41;24.60;77.80
56046;DHT22;41913;51.030;3.706;2022-08-27T14:46:18;24.50;77.60
56046;DHT22;41913;51.030;3.706;2022-08-27T14:48:44;24.50;78.00
56046;DHT22;41913;51.030;3.706;2022-08-27T14:51:17;24.50;77.70
56046;DHT22;41913;51.030;3.706;2022-08-27T14:53:45;24.50;78.10
56046;DHT22;41913;51.030;3.706;2022-08-27T14:56:11;24.40;78.40
56046;DHT22;41913;51.030;3.706;2022-08-27T14:58:36;24.50;78.70
56046;DHT22;41913;51.030;3.706;2022-08-27T15:01:03;24.70;78.40
56046;DHT22;41913;51.030;3.706;2022-08-27T15:03:30;24.90;78.10
56046;DHT22;41913;51.030;3.706;2022-08-27T15:05:58;25.20;78.00
56046;DHT22;41913;51.030;3.706;2022-08-27T15:08:24;25.50;76.70
56046;DHT22;41913;51.030;3.706;2022-08-27T15:10:52;25.40;77.00
56046;DHT22;41913;51.030;3.706;2022-08-27T15:13:20;25.10;76.30
56046;DHT22;41913;51.030;3.706;2022-08-27T15:15:46;24.90;76.40
56046;DHT22;41913;51.030;3.706;2022-08-27T15:18:11;24.90;76.50
56046;DHT22;41913;51.030;3.706;2022-08-27T15:20:40;24.90;77.10
56046;DHT22;41913;51.030;3.706;2022-08-27T15:23:10;25.10;76.50
56046;DHT22;41913;51.030;3.706;2022-08-27T15:25:39;25.30;76.00
56046;DHT22;41913;51.030;3.706;2022-08-27T15:28:12;25.40;76.00
56046;DHT22;41913;51.030;3.706;2022-08-27T15:30:37;25.90;75.20
56046;DHT22;41913;51.030;3.706;2022-08-27T15:33:05;25.90;74.20
56046;DHT22;41913;51.030;3.706;2022-08-27T15:35:34;25.40;75.70
56046;DHT22;41913;51.030;3.706;2022-08-27T15:38:00;25.20;76.10
56046;DHT22;41913;51.030;3.706;2022-08-27T15:40:28;25.40;75.60
56046;DHT22;41913;51.030;3.706;2022-08-27T15:43:03;25.20;75.60
56046;DHT22;41913;51.030;3.706;2022-08-27T15:45:33;25.30;75.60
56046;DHT22;41913;51.030;3.706;2022-08-27T15:48:02;25.50;76.30
56046;DHT22;41913;51.030;3.706;2022-08-27T15:50:29;24.90;76.90
56046;DHT22;41913;51.030;3.706;2022-08-27T15:53:00;24.60;76.70
56046;DHT22;41913;51.030;3.706;2022-08-27T15:55:30;24.60;77.00
56046;DHT22;41913;51.030;3.706;2022-08-27T15:57:57;24.70;76.90
56046;DHT22;41913;51.030;3.706;2022-08-27T16:00:26;24.70;76.80
56046;DHT22;41913;51.030;3.706;2022-08-27T16:02:53;24.80;76.90
56046;DHT22;41913;51.030;3.706;2022-08-27T16:05:21;24.70;76.00
56046;DHT22;41913;51.030;3.706;2022-08-27T16:07:47;24.40;76.70
56046;DHT22;41913;51.030;3.706;2022-08-27T16:10:35;24.30;77.20
56046;DHT22;41913;51.030;3.706;2022-08-27T16:13:04;24.00;78.00
56046;DHT22;41913;51.030;3.706;2022-08-27T16:15:31;24.10;78.10
56046;DHT22;41913;51.030;3.706;2022-08-27T16:18:00;24.10;77.30
56046;DHT22;41913;51.030;3.706;2022-08-27T16:20:31;24.20;77.80
56046;DHT22;41913;51.030;3.706;2022-08-27T16:22:59;24.30;77.30
56046;DHT22;41913;51.030;3.706;2022-08-27T16:25:25;24.40;77.50
56046;DHT22;41913;51.030;3.706;2022-08-27T16:27:51;24.30;77.30
56046;DHT22;41913;51.030;3.706;2022-08-27T16:30:19;24.20;78.00
56046;DHT22;41913;51.030;3.706;2022-08-27T16:32:48;23.80;78.90
56046;DHT22;41913;51.030;3.706;2022-08-27T16:35:16;23.70;79.50
56046;DHT22;41913;51.030;3.706;2022-08-27T16:37:42;23.80;79.40
56046;DHT22;41913;51.030;3.706;2022-08-27T16:40:10;23.60;79.30
56046;DHT22;41913;51.030;3.706;2022-08-27T16:42:48;23.60;79.30
56046;DHT22;41913;51.030;3.706;2022-08-27T16:45:16;23.50;79.20
56046;DHT22;41913;51.030;3.706;2022-08-27T16:47:45;23.50;79.70
56046;DHT22;41913;51.030;3.706;2022-08-27T16:50:30;23.50;80.10
56046;DHT22;41913;51.030;3.706;2022-08-27T16:55:29;23.70;79.60
56046;DHT22;41913;51.030;3.706;2022-08-27T16:57:58;23.50;79.70
56046;DHT22;41913;51.030;3.706;2022-08-27T17:00:24;23.50;80.00
56046;DHT22;41913;51.030;3.706;2022-08-27T17:02:50;23.70;80.20
56046;DHT22;41913;51.030;3.706;2022-08-27T17:05:16;23.70;80.50
56046;DHT22;41913;51.030;3.706;2022-08-27T17:07:43;23.60;81.50
56046;DHT22;41913;51.030;3.706;2022-08-27T17:10:12;23.50;82.60
56046;DHT22;41913;51.030;3.706;2022-08-27T17:12:41;23.60;82.80